sensor_id;sensor_type;location;lat;lon;timestamp;pressure;altitude;pressure_sealevel;temperature;humidity
32083;BME280;18597;48.328;7.932;2022-08-26T00:00:45;99086.16;;;18.47;94.49
32083;BME280;18597;48.328;7.932;2022-08-26T00:03:12;99082.00;;;18.44;94.72
32083;BME280;18597;48.328;7.932;2022-08-26T00:05:39;99086.09;;;18.40;95.10
32083;BME280;18597;48.328;7.932;2022-08-26T00:08:07;99088.94;;;18.32;96.09
32083;BME280;18597;48.328;7.932;2022-08-26T00:10:33;99087.69;;;18.35;96.38
32083;BME280;18597;48.328;7.932;2022-08-26T00:12:59;99093.84;;;18.22;97.44
32083;BME280;18597;48.328;7.932;2022-08-26T00:15:25;99094.94;;;18.06;98.42
32083;BME280;18597;48.328;7.932;2022-08-26T00:17:52;99092.59;;;18.03;98.71
32083;BME280;18597;48.328;7.932;2022-08-26T00:20:24;99098.13;;;17.95;99.72
32083;BME280;18597;48.328;7.932;2022-08-26T00:22:51;99101.59;;;17.89;100.00
32083;BME280;18597;48.328;7.932;2022-08-26T00:25:17;99101.53;;;18.03;99.95
32083;BME280;18597;48.328;7.932;2022-08-26T00:27:43;99105.97;;;17.90;100.00
32083;BME280;18597;48.328;7.932;2022-08-26T00:30:17;99106.28;;;17.80;100.00
32083;BME280;18597;48.328;7.932;2022-08-26T00:32:44;99111.41;;;17.75;100.00
32083;BME280;18597;48.328;7.932;2022-08-26T00:35:10;99103.28;;;17.75;100.00
32083;BME280;18597;48.328;7.932;2022-08-26T00:37:39;99104.88;;;17.69;100.00
32083;BME280;18597;48.328;7.932;2022-08-26T00:40:10;99111.47;;;17.67;100.00
32083;BME280;18597;48.328;7.932;2022-08-26T00:42:36;99102.09;;;17.63;100.00
32083;BME280;18597;48.328;7.932;2022-08-26T00:45:03;99106.00;;;17.60;100.00
32083;BME280;18597;48.328;7.932;2022-08-26T00:47:45;99111.16;;;17.55;100.00
32083;BME280;18597;48.328;7.932;2022-08-26T00:50:18;99109.19;;;17.49;100.00
32083;BME280;18597;48.328;7.932;2022-08-26T00:52:45;99119.72;;;17.44;100.00
32083;BME280;18597;48.328;7.932;2022-08-26T00:55:18;99117.59;;;17.39;100.00
32083;BME280;18597;48.328;7.932;2022-08-26T00:57:48;99108.66;;;17.39;100.00
32083;BME280;18597;48.328;7.932;2022-08-26T01:00:23;99108.81;;;17.37;100.00
32083;BME280;18597;48.328;7.932;2022-08-26T01:02:49;99106.06;;;17.31;100.00
32083;BME280;18597;48.328;7.932;2022-08-26T01:05:18;99110.44;;;17.32;100.00
32083;BME280;18597;48.328;7.932;2022-08-26T01:07:44;99110.53;;;17.24;100.00
32083;BME280;18597;48.328;7.932;2022-08-26T01:10:16;99116.09;;;17.22;100.00
32083;BME280;18597;48.328;7.932;2022-08-26T01:12:48;99122.31;;;17.23;100.00
32083;BME280;18597;48.328;7.932;2022-08-26T01:15:22;99119.19;;;17.34;100.00
32083;BME280;18597;48.328;7.932;2022-08-26T01:17:49;99125.22;;;17.36;100.00
32083;BME280;18597;48.328;7.932;2022-08-26T01:23:14;99134.00;;;17.23;100.00
32083;BME280;18597;48.328;7.932;2022-08-26T01:25:44;99132.78;;;17.40;100.00
32083;BME280;18597;48.328;7.932;2022-08-26T01:28:22;99126.97;;;17.43;100.00
32083;BME280;18597;48.328;7.932;2022-08-26T01:30:51;99122.22;;;17.45;100.00
32083;BME280;18597;48.328;7.932;2022-08-26T01:33:23;99128.41;;;17.25;100.00
32083;BME280;18597;48.328;7.932;2022-08-26T01:35:51;99128.50;;;17.16;100.00
32083;BME280;18597;48.328;7.932;2022-08-26T01:38:18;99132.47;;;17.06;100.00
32083;BME280;18597;48.328;7.932;2022-08-26T01:40:44;99131.75;;;17.27;100.00
32083;BME280;18597;48.328;7.932;2022-08-26T01:43:16;99131.53;;;17.13;100.00
32083;BME280;18597;48.328;7.932;2022-08-26T01:45:45;99136.38;;;17.03;100.00
32083;BME280;18597;48.328;7.932;2022-08-26T01:48:16;99134.81;;;17.09;100.00
32083;BME280;18597;48.328;7.932;2022-08-26T01:50:44;99141.78;;;17.03;100.00
32083;BME280;18597;48.328;7.932;2022-08-26T01:53:14;99138.34;;;16.95;100.00
32083;BME280;18597;48.328;7.932;2022-08-26T01:55:45;99139.44;;;17.00;100.00
32083;BME280;18597;48.328;7.932;2022-08-26T01:58:20;99139.53;;;17.07;100.00
32083;BME280;18597;48.328;7.932;2022-08-26T02:00:48;99149.22;;;16.86;100.00
32083;BME280;18597;48.328;7.932;2022-08-26T02:03:15;99149.94;;;16.80;100.00
32083;BME280;18597;48.328;7.932;2022-08-26T02:05:52;99145.56;;;16.79;100.00
32083;BME280;18597;48.328;7.932;2022-08-26T02:08:24;99148.06;;;16.81;100.00
32083;BME280;18597;48.328;7.932;2022-08-26T02:10:52;99150.03;;;16.87;100.00
32083;BME280;18597;48.328;7.932;2022-08-26T02:13:18;99162.16;;;17.06;100.00
32083;BME280;18597;48.328;7.932;2022-08-26T02:15:45;99154.06;;;17.06;100.00
32083;BME280;18597;48.328;7.932;2022-08-26T02:18:12;99156.19;;;16.96;100.00
32083;BME280;18597;48.328;7.932;2022-08-26T02:20:38;99162.41;;;16.81;100.00
32083;BME280;18597;48.328;7.932;2022-08-26T02:23:05;99160.81;;;16.72;100.00
32083;BME280;18597;48.328;7.932;2022-08-26T02:25:47;99161.50;;;16.66;100.00
32083;BME280;18597;48.328;7.932;2022-08-26T02:28:16;99169.13;;;16.62;100.00
32083;BME280;18597;48.328;7.932;2022-08-26T02:30:43;99160.16;;;16.70;100.00
32083;BME280;18597;48.328;7.932;2022-08-26T02:33:10;99161.47;;;16.89;100.00
32083;BME280;18597;48.328;7.932;2022-08-26T02:35:37;99160.41;;;16.75;100.00
32083;BME280;18597;48.328;7.932;2022-08-26T02:38:06;99160.81;;;16.72;100.00
32083;BME280;18597;48.328;7.932;2022-08-26T02:40:36;99158.47;;;16.61;100.00
32083;BME280;18597;48.328;7.932;2022-08-26T02:43:03;99156.59;;;16.70;100.00
32083;BME280;18597;48.328;7.932;2022-08-26T02:45:29;99152.25;;;16.60;100.00
32083;BME280;18597;48.328;7.932;2022-08-26T02:47:56;99154.22;;;16.67;100.00
32083;BME280;18597;48.328;7.932;2022-08-26T02:50:25;99157.00;;;16.58;100.00
32083;BME280;18597;48.328;7.932;2022-08-26T02:52:51;99159.19;;;16.55;100.00
32083;BME280;18597;48.328;7.932;2022-08-26T02:55:17;99149.56;;;16.60;100.00
32083;BME280;18597;48.328;7.932;2022-08-26T02:57:43;99147.06;;;16.59;100.00
32083;BME280;18597;48.328;7.932;2022-08-26T03:00:11;99141.06;;;16.49;100.00
32083;BME280;18597;48.328;7.932;2022-08-26T03:02:39;99152.41;;;16.44;100.00
32083;BME280;18597;48.328;7.932;2022-08-26T03:05:06;99154.97;;;16.37;100.00
32083;BME280;18597;48.328;7.932;2022-08-26T03:07:32;99152.47;;;16.36;100.00
32083;BME280;18597;48.328;7.932;2022-08-26T03:09:58;99163.19;;;16.44;100.00
32083;BME280;18597;48.328;7.932;2022-08-26T03:12:24;99145.50;;;16.64;100.00
32083;BME280;18597;48.328;7.932;2022-08-26T03:14:50;99142.09;;;16.48;100.00
32083;BME280;18597;48.328;7.932;2022-08-26T03:17:16;99142.56;;;16.51;100.00
32083;BME280;18597;48.328;7.932;2022-08-26T03:19:41;99139.78;;;16.59;100.00
32083;BME280;18597;48.328;7.932;2022-08-26T03:22:07;99134.91;;;16.63;100.00
32083;BME280;18597;48.328;7.932;2022-08-26T03:24:33;99139.41;;;16.48;100.00
32083;BME280;18597;48.328;7.932;2022-08-26T03:26:59;99143.41;;;16.29;100.00
32083;BME280;18597;48.328;7.932;2022-08-26T03:29:26;99151.44;;;16.37;100.00
32083;BME280;18597;48.328;7.932;2022-08-26T03:32:12;99137.50;;;16.33;100.00
32083;BME280;18597;48.328;7.932;2022-08-26T03:34:38;99137.50;;;16.33;100.00
32083;BME280;18597;48.328;7.932;2022-08-26T03:37:04;99135.84;;;16.24;100.00
32083;BME280;18597;48.328;7.932;2022-08-26T03:39:30;99133.34;;;16.23;100.00
32083;BME280;18597;48.328;7.932;2022-08-26T03:41:56;99132.88;;;16.19;100.00
32083;BME280;18597;48.328;7.932;2022-08-26T03:44:23;99139.69;;;16.30;100.00
32083;BME280;18597;48.328;7.932;2022-08-26T03:46:49;99139.81;;;16.36;100.00
32083;BME280;18597;48.328;7.932;2022-08-26T03:49:15;99145.06;;;16.53;100.00
32083;BME280;18597;48.328;7.932;2022-08-26T03:51:40;99141.34;;;16.54;100.00
32083;BME280;18597;48.328;7.932;2022-08-26T03:54:06;99141.22;;;16.47;100.00
32083;BME280;18597;48.328;7.932;2022-08-26T03:56:33;99142.81;;;16.42;100.00
32083;BME280;18597;48.328;7.932;2022-08-26T03:58:59;99145.22;;;16.36;100.00
32083;BME280;18597;48.328;7.932;2022-08-26T04:01:26;99142.75;;;16.50;100.00
32083;BME280;18597;48.328;7.932;2022-08-26T04:03:53;99144.25;;;16.29;100.00
32083;BME280;18597;48.328;7.932;2022-08-26T04:06:25;99149.75;;;16.36;100.00
32083;BME280;18597;48.328;7.932;2022-08-26T04:08:54;99141.22;;;16.32;100.00
32083;BME280;18597;48.328;7.932;2022-08-26T04:11:24;99148.06;;;16.12;100.00
32083;BME280;18597;48.328;7.932;2022-08-26T04:13:53;99148.31;;;16.02;100.00
32083;BME280;18597;48.328;7.932;2022-08-26T04:16:19;99153.19;;;15.99;100.00
32083;BME280;18597;48.328;7.932;2022-08-26T04:18:45;99153.56;;;15.96;100.00
32083;BME280;18597;48.328;7.932;2022-08-26T04:21:11;99147.63;;;16.00;100.00
32083;BME280;18597;48.328;7.932;2022-08-26T04:23:37;99148.53;;;15.93;100.00
32083;BME280;18597;48.328;7.932;2022-08-26T04:26:04;99158.28;;;15.94;100.00
32083;BME280;18597;48.328;7.932;2022-08-26T04:28:30;99155.91;;;15.99;100.00
32083;BME280;18597;48.328;7.932;2022-08-26T04:30:56;99156.28;;;15.96;100.00
32083;BME280;18597;48.328;7.932;2022-08-26T04:33:23;99158.59;;;15.99;100.00
32083;BME280;18597;48.328;7.932;2022-08-26T04:35:49;99153.03;;;16.23;100.00
32083;BME280;18597;48.328;7.932;2022-08-26T04:38:16;99157.78;;;16.21;100.00
32083;BME280;18597;48.328;7.932;2022-08-26T04:40:45;99161.19;;;16.15;100.00
32083;BME280;18597;48.328;7.932;2022-08-26T04:43:11;99158.56;;;16.30;100.00
32083;BME280;18597;48.328;7.932;2022-08-26T04:45:38;99151.75;;;16.19;100.00
32083;BME280;18597;48.328;7.932;2022-08-26T04:48:05;99160.97;;;16.25;100.00
32083;BME280;18597;48.328;7.932;2022-08-26T04:50:31;99162.16;;;16.45;100.00
32083;BME280;18597;48.328;7.932;2022-08-26T04:52:57;99161.97;;;16.47;100.00
32083;BME280;18597;48.328;7.932;2022-08-26T04:55:24;99170.09;;;16.61;100.00
32083;BME280;18597;48.328;7.932;2022-08-26T04:57:51;99167.97;;;16.57;100.00
32083;BME280;18597;48.328;7.932;2022-08-26T05:00:18;99164.72;;;16.61;100.00
32083;BME280;18597;48.328;7.932;2022-08-26T05:02:44;99165.09;;;16.58;100.00
32083;BME280;18597;48.328;7.932;2022-08-26T05:05:11;99172.47;;;16.64;100.00
32083;BME280;18597;48.328;7.932;2022-08-26T05:07:38;99167.72;;;16.67;100.00
32083;BME280;18597;48.328;7.932;2022-08-26T05:10:05;99173.56;;;16.78;100.00
32083;BME280;18597;48.328;7.932;2022-08-26T05:12:32;99178.59;;;16.81;100.00
32083;BME280;18597;48.328;7.932;2022-08-26T05:14:57;99176.56;;;16.98;100.00
32083;BME280;18597;48.328;7.932;2022-08-26T05:17:24;99181.53;;;17.09;100.00
32083;BME280;18597;48.328;7.932;2022-08-26T05:19:52;99185.16;;;17.16;100.00
32083;BME280;18597;48.328;7.932;2022-08-26T05:22:18;99180.34;;;17.27;100.00
32083;BME280;18597;48.328;7.932;2022-08-26T05:24:45;99191.16;;;17.41;100.00
32083;BME280;18597;48.328;7.932;2022-08-26T05:27:12;99186.69;;;17.48;100.00
32083;BME280;18597;48.328;7.932;2022-08-26T05:29:39;99189.09;;;17.58;100.00
32083;BME280;18597;48.328;7.932;2022-08-26T05:32:06;99185.09;;;17.69;99.70
32083;BME280;18597;48.328;7.932;2022-08-26T05:34:32;99189.41;;;17.78;98.95
32083;BME280;18597;48.328;7.932;2022-08-26T05:36:58;99193.16;;;17.98;97.73
32083;BME280;18597;48.328;7.932;2022-08-26T05:39:24;99202.09;;;18.14;96.27
32083;BME280;18597;48.328;7.932;2022-08-26T05:41:50;99196.34;;;18.38;93.85
32083;BME280;18597;48.328;7.932;2022-08-26T05:44:17;99189.56;;;18.49;93.25
32083;BME280;18597;48.328;7.932;2022-08-26T05:46:44;99190.91;;;18.74;90.36
32083;BME280;18597;48.328;7.932;2022-08-26T05:49:12;99189.84;;;18.97;89.38
32083;BME280;18597;48.328;7.932;2022-08-26T05:51:40;99195.59;;;19.15;88.13
32083;BME280;18597;48.328;7.932;2022-08-26T05:54:06;99198.56;;;19.20;87.73
32083;BME280;18597;48.328;7.932;2022-08-26T05:56:32;99186.78;;;19.06;88.35
32083;BME280;18597;48.328;7.932;2022-08-26T05:58:58;99198.47;;;19.35;86.79
32083;BME280;18597;48.328;7.932;2022-08-26T06:01:27;99198.78;;;19.53;85.80
32083;BME280;18597;48.328;7.932;2022-08-26T06:03:58;99192.81;;;21.33;75.49
32083;BME280;18597;48.328;7.932;2022-08-26T06:06:29;99202.84;;;23.62;61.16
32083;BME280;18597;48.328;7.932;2022-08-26T06:08:56;99191.53;;;26.25;50.67
32083;BME280;18597;48.328;7.932;2022-08-26T06:11:27;99195.22;;;28.70;43.85
32083;BME280;18597;48.328;7.932;2022-08-26T06:13:55;99196.38;;;30.33;40.25
32083;BME280;18597;48.328;7.932;2022-08-26T06:16:23;99192.78;;;30.37;38.63
32083;BME280;18597;48.328;7.932;2022-08-26T06:18:51;99194.34;;;30.08;38.97
32083;BME280;18597;48.328;7.932;2022-08-26T06:21:35;99189.06;;;30.06;39.42
32083;BME280;18597;48.328;7.932;2022-08-26T06:24:08;99183.56;;;32.25;35.28
32083;BME280;18597;48.328;7.932;2022-08-26T06:26:58;99183.97;;;34.32;31.86
32083;BME280;18597;48.328;7.932;2022-08-26T06:29:26;99181.88;;;35.78;29.32
32083;BME280;18597;48.328;7.932;2022-08-26T06:31:55;99185.97;;;34.69;30.21
32083;BME280;18597;48.328;7.932;2022-08-26T06:34:22;99187.31;;;35.70;29.01
32083;BME280;18597;48.328;7.932;2022-08-26T06:36:48;99193.16;;;36.87;27.77
32083;BME280;18597;48.328;7.932;2022-08-26T06:39:17;99190.00;;;37.02;26.89
32083;BME280;18597;48.328;7.932;2022-08-26T06:41:44;99182.38;;;38.01;25.84
32083;BME280;18597;48.328;7.932;2022-08-26T06:44:13;99186.63;;;39.25;24.49
32083;BME280;18597;48.328;7.932;2022-08-26T06:46:41;99185.72;;;39.97;23.60
32083;BME280;18597;48.328;7.932;2022-08-26T06:49:08;99183.16;;;40.42;22.89
32083;BME280;18597;48.328;7.932;2022-08-26T06:51:36;99183.38;;;41.21;22.12
32083;BME280;18597;48.328;7.932;2022-08-26T06:54:04;99180.13;;;41.76;21.73
32083;BME280;18597;48.328;7.932;2022-08-26T06:56:36;99168.72;;;42.71;20.55
32083;BME280;18597;48.328;7.932;2022-08-26T06:59:04;99183.50;;;42.96;19.93
32083;BME280;18597;48.328;7.932;2022-08-26T07:01:33;99174.94;;;42.52;19.98
32083;BME280;18597;48.328;7.932;2022-08-26T07:04:03;99174.88;;;42.11;20.49
32083;BME280;18597;48.328;7.932;2022-08-26T07:06:30;99164.88;;;42.51;20.19
32083;BME280;18597;48.328;7.932;2022-08-26T07:09:02;99164.88;;;42.91;19.68
32083;BME280;18597;48.328;7.932;2022-08-26T07:11:31;99166.31;;;43.57;19.27
32083;BME280;18597;48.328;7.932;2022-08-26T07:13:58;99157.00;;;44.90;18.18
32083;BME280;18597;48.328;7.932;2022-08-26T07:16:25;99165.84;;;45.30;17.12
32083;BME280;18597;48.328;7.932;2022-08-26T07:18:52;99159.81;;;45.74;17.03
32083;BME280;18597;48.328;7.932;2022-08-26T07:21:19;99158.53;;;46.47;16.40
32083;BME280;18597;48.328;7.932;2022-08-26T07:23:46;99153.78;;;46.55;15.75
32083;BME280;18597;48.328;7.932;2022-08-26T07:26:18;99156.22;;;47.20;15.76
32083;BME280;18597;48.328;7.932;2022-08-26T07:28:47;99151.41;;;47.65;15.38
32083;BME280;18597;48.328;7.932;2022-08-26T07:31:16;99157.13;;;48.24;14.94
32083;BME280;18597;48.328;7.932;2022-08-26T07:33:42;99147.28;;;48.69;14.41
32083;BME280;18597;48.328;7.932;2022-08-26T07:36:10;99158.81;;;49.23;14.15
32083;BME280;18597;48.328;7.932;2022-08-26T07:38:38;99155.50;;;49.03;14.15
32083;BME280;18597;48.328;7.932;2022-08-26T07:41:05;99147.50;;;49.44;13.75
32083;BME280;18597;48.328;7.932;2022-08-26T07:43:34;99151.56;;;50.14;13.34
32083;BME280;18597;48.328;7.932;2022-08-26T07:46:01;99154.09;;;51.00;12.46
32083;BME280;18597;48.328;7.932;2022-08-26T07:48:27;99148.38;;;51.66;12.80
32083;BME280;18597;48.328;7.932;2022-08-26T07:50:53;99134.97;;;52.15;11.73
32083;BME280;18597;48.328;7.932;2022-08-26T07:53:20;99140.72;;;52.04;11.83
32083;BME280;18597;48.328;7.932;2022-08-26T07:55:47;99134.22;;;52.41;11.78
32083;BME280;18597;48.328;7.932;2022-08-26T07:58:13;99140.59;;;51.74;12.42
32083;BME280;18597;48.328;7.932;2022-08-26T08:00:40;99142.03;;;48.05;14.39
32083;BME280;18597;48.328;7.932;2022-08-26T08:03:06;99133.78;;;45.84;16.34
32083;BME280;18597;48.328;7.932;2022-08-26T08:05:33;99134.84;;;45.53;16.54
32083;BME280;18597;48.328;7.932;2022-08-26T08:08:04;99126.97;;;46.72;15.68
32083;BME280;18597;48.328;7.932;2022-08-26T08:10:31;99123.25;;;47.83;14.66
32083;BME280;18597;48.328;7.932;2022-08-26T08:12:58;99137.25;;;48.20;14.76
32083;BME280;18597;48.328;7.932;2022-08-26T08:15:27;99125.25;;;46.94;15.39
32083;BME280;18597;48.328;7.932;2022-08-26T08:17:54;99126.28;;;45.27;16.37
32083;BME280;18597;48.328;7.932;2022-08-26T08:20:23;99130.84;;;45.77;16.24
32083;BME280;18597;48.328;7.932;2022-08-26T08:22:50;99127.53;;;46.25;15.75
32083;BME280;18597;48.328;7.932;2022-08-26T08:25:17;99116.25;;;46.55;15.45
32083;BME280;18597;48.328;7.932;2022-08-26T08:27:44;99121.34;;;46.15;15.99
32083;BME280;18597;48.328;7.932;2022-08-26T08:30:12;99116.78;;;46.97;15.60
32083;BME280;18597;48.328;7.932;2022-08-26T08:32:38;99117.59;;;47.39;15.13
32083;BME280;18597;48.328;7.932;2022-08-26T08:35:05;99113.50;;;46.62;15.81
32083;BME280;18597;48.328;7.932;2022-08-26T08:37:33;99117.84;;;45.50;16.88
32083;BME280;18597;48.328;7.932;2022-08-26T08:39:59;99117.00;;;45.03;17.20
32083;BME280;18597;48.328;7.932;2022-08-26T08:42:51;99116.53;;;44.43;17.66
32083;BME280;18597;48.328;7.932;2022-08-26T08:45:56;99115.59;;;42.93;19.04
32083;BME280;18597;48.328;7.932;2022-08-26T08:48:25;99117.91;;;40.30;21.39
32083;BME280;18597;48.328;7.932;2022-08-26T08:50:57;99124.84;;;37.65;24.40
32083;BME280;18597;48.328;7.932;2022-08-26T08:53:35;99121.88;;;35.77;26.85
32083;BME280;18597;48.328;7.932;2022-08-26T08:56:30;99126.13;;;34.63;28.54
32083;BME280;18597;48.328;7.932;2022-08-26T08:59:28;99123.22;;;33.45;30.74
32083;BME280;18597;48.328;7.932;2022-08-26T09:02:52;99120.03;;;32.20;32.80
32083;BME280;18597;48.328;7.932;2022-08-26T09:05:24;99112.56;;;31.51;34.22
32083;BME280;18597;48.328;7.932;2022-08-26T09:08:02;99123.16;;;30.93;35.14
32083;BME280;18597;48.328;7.932;2022-08-26T09:10:54;99129.72;;;30.41;36.14
32083;BME280;18597;48.328;7.932;2022-08-26T09:13:22;99128.03;;;30.35;36.51
32083;BME280;18597;48.328;7.932;2022-08-26T09:16:11;99130.63;;;29.89;37.28
32083;BME280;18597;48.328;7.932;2022-08-26T09:19:39;99118.78;;;29.89;37.66
32083;BME280;18597;48.328;7.932;2022-08-26T09:21:57;99133.66;;;29.88;37.79
32083;BME280;18597;48.328;7.932;2022-08-26T09:24:25;99128.69;;;29.90;37.92
32083;BME280;18597;48.328;7.932;2022-08-26T09:26:51;99125.72;;;30.06;37.76
32083;BME280;18597;48.328;7.932;2022-08-26T09:29:25;99127.16;;;30.14;37.56
32083;BME280;18597;48.328;7.932;2022-08-26T09:32:18;99118.94;;;30.24;37.01
32083;BME280;18597;48.328;7.932;2022-08-26T09:35:01;99125.25;;;30.30;37.19
32083;BME280;18597;48.328;7.932;2022-08-26T09:37:45;99121.72;;;30.50;37.04
32083;BME280;18597;48.328;7.932;2022-08-26T09:40:29;99120.13;;;30.69;37.00
32083;BME280;18597;48.328;7.932;2022-08-26T09:43:14;99123.91;;;30.53;36.71
32083;BME280;18597;48.328;7.932;2022-08-26T09:45:46;99119.81;;;30.65;36.20
32083;BME280;18597;48.328;7.932;2022-08-26T09:48:26;99112.66;;;30.80;35.77
32083;BME280;18597;48.328;7.932;2022-08-26T09:50:59;99110.19;;;30.93;35.64
32083;BME280;18597;48.328;7.932;2022-08-26T09:53:31;99104.94;;;31.02;35.42
32083;BME280;18597;48.328;7.932;2022-08-26T09:56:28;99101.34;;;31.07;34.87
32083;BME280;18597;48.328;7.932;2022-08-26T09:58:55;99095.56;;;30.93;36.00
32083;BME280;18597;48.328;7.932;2022-08-26T10:04:09;99098.34;;;30.78;35.54
32083;BME280;18597;48.328;7.932;2022-08-26T10:07:02;99092.81;;;30.83;35.67
32083;BME280;18597;48.328;7.932;2022-08-26T10:09:35;99087.03;;;30.79;36.05
32083;BME280;18597;48.328;7.932;2022-08-26T10:12:19;99092.53;;;30.74;35.40
32083;BME280;18597;48.328;7.932;2022-08-26T10:14:52;99086.22;;;30.84;35.86
32083;BME280;18597;48.328;7.932;2022-08-26T10:17:31;99095.25;;;31.05;35.29
32083;BME280;18597;48.328;7.932;2022-08-26T10:20:09;99077.34;;;31.23;34.93
32083;BME280;18597;48.328;7.932;2022-08-26T10:23:04;99082.88;;;31.23;35.34
32083;BME280;18597;48.328;7.932;2022-08-26T10:26:00;99075.91;;;31.20;35.61
32083;BME280;18597;48.328;7.932;2022-08-26T10:28:55;99077.88;;;31.30;35.18
32083;BME280;18597;48.328;7.932;2022-08-26T10:31:39;99076.66;;;31.56;35.42
32083;BME280;18597;48.328;7.932;2022-08-26T10:34:09;99068.03;;;31.83;34.71
32083;BME280;18597;48.328;7.932;2022-08-26T10:36:41;99076.16;;;32.09;34.58
32083;BME280;18597;48.328;7.932;2022-08-26T10:39:30;99072.44;;;32.28;34.83
32083;BME280;18597;48.328;7.932;2022-08-26T10:42:07;99075.47;;;32.37;34.87
32083;BME280;18597;48.328;7.932;2022-08-26T10:44:36;99066.03;;;32.38;34.75
32083;BME280;18597;48.328;7.932;2022-08-26T10:47:20;99062.63;;;32.12;35.01
32083;BME280;18597;48.328;7.932;2022-08-26T10:49:51;99063.28;;;31.89;35.13
32083;BME280;18597;48.328;7.932;2022-08-26T10:52:45;99069.41;;;31.75;35.35
32083;BME280;18597;48.328;7.932;2022-08-26T10:55:34;99063.63;;;31.77;35.21
32083;BME280;18597;48.328;7.932;2022-08-26T10:58:50;99066.03;;;31.94;35.02
32083;BME280;18597;48.328;7.932;2022-08-26T11:01:23;99063.03;;;31.90;34.79
32083;BME280;18597;48.328;7.932;2022-08-26T11:07:33;99057.09;;;32.12;35.01
32083;BME280;18597;48.328;7.932;2022-08-26T11:13:00;99054.47;;;32.31;34.03
32083;BME280;18597;48.328;7.932;2022-08-26T11:18:08;99047.19;;;32.45;33.80
32083;BME280;18597;48.328;7.932;2022-08-26T11:20:40;99041.88;;;32.54;33.71
32083;BME280;18597;48.328;7.932;2022-08-26T11:26:16;99041.47;;;31.87;35.85
32083;BME280;18597;48.328;7.932;2022-08-26T11:28:46;99048.69;;;31.73;36.16
32083;BME280;18597;48.328;7.932;2022-08-26T11:34:05;99047.91;;;31.67;35.88
32083;BME280;18597;48.328;7.932;2022-08-26T11:42:46;99046.47;;;31.85;36.38
32083;BME280;18597;48.328;7.932;2022-08-26T11:45:24;99041.91;;;31.55;37.06
32083;BME280;18597;48.328;7.932;2022-08-26T11:47:52;99037.47;;;31.54;37.35
32083;BME280;18597;48.328;7.932;2022-08-26T11:50:23;99039.13;;;31.60;37.00
32083;BME280;18597;48.328;7.932;2022-08-26T11:55:21;99039.13;;;31.60;36.70
32083;BME280;18597;48.328;7.932;2022-08-26T11:57:51;99039.41;;;31.54;36.52
32083;BME280;18597;48.328;7.932;2022-08-26T12:00:23;99039.63;;;31.67;36.69
32083;BME280;18597;48.328;7.932;2022-08-26T12:02:52;99035.66;;;31.89;36.74
32083;BME280;18597;48.328;7.932;2022-08-26T12:05:26;99036.66;;;32.08;35.96
32083;BME280;18597;48.328;7.932;2022-08-26T12:07:53;99042.09;;;32.18;36.24
32083;BME280;18597;48.328;7.932;2022-08-26T12:10:31;99044.09;;;32.13;35.71
32083;BME280;18597;48.328;7.932;2022-08-26T12:13:01;99042.81;;;31.95;36.05
32083;BME280;18597;48.328;7.932;2022-08-26T12:15:30;99040.50;;;32.12;36.26
32083;BME280;18597;48.328;7.932;2022-08-26T12:17:57;99036.72;;;32.42;35.94
32083;BME280;18597;48.328;7.932;2022-08-26T12:20:41;99019.59;;;32.69;35.16
32083;BME280;18597;48.328;7.932;2022-08-26T12:29:00;99015.72;;;32.70;35.15
32083;BME280;18597;48.328;7.932;2022-08-26T12:31:32;99012.78;;;32.91;34.89
32083;BME280;18597;48.328;7.932;2022-08-26T12:34:04;99009.16;;;33.19;34.03
32083;BME280;18597;48.328;7.932;2022-08-26T12:36:47;99007.28;;;33.38;34.14
32083;BME280;18597;48.328;7.932;2022-08-26T12:39:31;99003.63;;;33.19;33.56
32083;BME280;18597;48.328;7.932;2022-08-26T12:42:03;99001.69;;;32.96;34.02
32083;BME280;18597;48.328;7.932;2022-08-26T12:44:35;98997.72;;;33.02;34.25
32083;BME280;18597;48.328;7.932;2022-08-26T12:47:08;98995.31;;;32.95;34.21
32083;BME280;18597;48.328;7.932;2022-08-26T12:49:37;99012.53;;;32.87;34.19
32083;BME280;18597;48.328;7.932;2022-08-26T12:52:06;99002.53;;;32.91;33.94
32083;BME280;18597;48.328;7.932;2022-08-26T12:54:33;99001.25;;;33.07;34.18
32083;BME280;18597;48.328;7.932;2022-08-26T12:57:29;99010.16;;;33.04;34.03
32083;BME280;18597;48.328;7.932;2022-08-26T13:00:35;98992.41;;;33.29;33.16
32083;BME280;18597;48.328;7.932;2022-08-26T13:03:02;98994.97;;;33.50;33.29
32083;BME280;18597;48.328;7.932;2022-08-26T13:05:32;98995.38;;;34.00;33.00
32083;BME280;18597;48.328;7.932;2022-08-26T13:08:24;98997.88;;;34.01;31.88
32083;BME280;18597;48.328;7.932;2022-08-26T13:11:03;98992.03;;;34.35;31.34
32083;BME280;18597;48.328;7.932;2022-08-26T13:13:30;98994.91;;;34.63;31.10
32083;BME280;18597;48.328;7.932;2022-08-26T13:15:56;98986.13;;;34.42;31.27
32083;BME280;18597;48.328;7.932;2022-08-26T13:18:21;98980.94;;;34.35;31.50
32083;BME280;18597;48.328;7.932;2022-08-26T13:20:47;98972.94;;;34.34;31.22
32083;BME280;18597;48.328;7.932;2022-08-26T13:23:13;98968.09;;;34.07;31.65
32083;BME280;18597;48.328;7.932;2022-08-26T13:25:39;98968.94;;;33.88;32.22
32083;BME280;18597;48.328;7.932;2022-08-26T13:28:05;98968.78;;;33.99;31.92
32083;BME280;18597;48.328;7.932;2022-08-26T13:30:31;98969.66;;;34.13;31.91
32083;BME280;18597;48.328;7.932;2022-08-26T13:32:59;98972.94;;;34.15;31.97
32083;BME280;18597;48.328;7.932;2022-08-26T13:35:26;98966.22;;;34.54;31.64
32083;BME280;18597;48.328;7.932;2022-08-26T13:37:52;98959.28;;;34.70;31.32
32083;BME280;18597;48.328;7.932;2022-08-26T13:40:17;98972.03;;;34.85;31.74
32083;BME280;18597;48.328;7.932;2022-08-26T13:42:43;98967.97;;;35.10;31.57
32083;BME280;18597;48.328;7.932;2022-08-26T13:45:10;98965.78;;;35.07;31.17
32083;BME280;18597;48.328;7.932;2022-08-26T13:47:36;98962.63;;;34.99;31.23
32083;BME280;18597;48.328;7.932;2022-08-26T13:50:03;98952.41;;;34.81;31.32